Brownville, Nebraska
Current Conditions -  °F | °C
As of 5:35 PM on Saturday 22 Nov 2014 (Local Time) from KAFK Reporting Station
Haze Haze  
Wind Chill: 55°   Ceiling: 300
Heat Index: 55°   Visibility: 4mi
Dew Point: 55°   Wind: 12mph
Humidity: 100%   Direction: 190°S
Pressure: 29.65"   Gusts: NA
Location:  40.4°N, 95.66°W
Report Text: KAFK 222335Z AUTO 19010KT 4SM BR OVC003 13/13 A2965 RMK AO2 T01250125
Loading
Personal Weather Stations






























Interactive Weather Map New forecast layout! Learn more

10-Day Weather Forecast

Advertisements
Track Severe Weather on mobile